createdAt,value
2017-11-24T00:00:00.284Z,3.00
2017-11-24T00:02:27.703Z,3.10
2017-11-24T00:04:55.127Z,3.10
2017-11-24T00:07:22.539Z,3.20
2017-11-24T00:09:49.953Z,2.73
2017-11-24T00:12:17.365Z,3.20
2017-11-24T00:14:44.771Z,2.87
2017-11-24T00:17:12.955Z,2.80
2017-11-24T00:19:41.134Z,2.40
2017-11-24T00:22:08.596Z,2.90
2017-11-24T00:24:36.115Z,2.57
2017-11-24T00:27:03.567Z,2.80
2017-11-24T00:29:31.169Z,2.37
2017-11-24T00:31:58.582Z,3.37
2017-11-24T00:34:26.801Z,2.63
2017-11-24T00:36:54.209Z,3.70
2017-11-24T00:39:21.615Z,3.27
2017-11-24T00:41:49.817Z,2.63
2017-11-24T00:44:17.292Z,2.60
2017-11-24T00:46:44.729Z,2.60
2017-11-24T00:49:12.922Z,3.30
2017-11-24T00:51:41.087Z,3.03
2017-11-24T00:54:08.501Z,2.80
2017-11-24T00:56:35.969Z,2.23
2017-11-24T00:59:03.450Z,2.90
2017-11-24T01:01:30.852Z,2.47
2017-11-24T01:03:58.379Z,2.50
2017-11-24T01:06:25.793Z,2.70
2017-11-24T01:08:58.880Z,2.40
2017-11-24T01:11:26.287Z,2.63
2017-11-24T01:13:54.495Z,2.20
2017-11-24T01:16:21.960Z,2.43
2017-11-24T01:18:49.372Z,2.80
2017-11-24T01:21:16.783Z,2.47
2017-11-24T01:23:44.985Z,2.63
2017-11-24T01:26:12.393Z,2.83
2017-11-24T01:28:39.803Z,3.83
2017-11-24T01:31:07.976Z,3.57
2017-11-24T01:33:36.202Z,3.40
2017-11-24T01:36:04.373Z,3.50
2017-11-24T01:38:32.546Z,3.30
2017-11-24T01:41:00.959Z,2.73
2017-11-24T01:43:28.356Z,3.40
2017-11-24T01:45:55.799Z,5.10
2017-11-24T01:48:23.207Z,3.80
2017-11-24T01:50:50.610Z,3.30
2017-11-24T01:53:18.792Z,3.00
2017-11-24T01:55:46.958Z,3.00
2017-11-24T01:58:14.378Z,3.10
2017-11-24T02:00:41.787Z,2.87
2017-11-24T02:03:09.340Z,3.30
2017-11-24T02:05:36.751Z,3.00
2017-11-24T02:08:04.964Z,2.90
2017-11-24T02:10:32.367Z,2.90
2017-11-24T02:12:59.783Z,3.50
2017-11-24T02:15:27.967Z,3.00
2017-11-24T02:17:55.388Z,3.33
2017-11-24T02:20:22.798Z,2.50
2017-11-24T02:22:50.983Z,3.07
2017-11-24T02:25:19.155Z,3.37
2017-11-24T02:27:47.337Z,3.30
2017-11-24T02:30:14.751Z,3.30
2017-11-24T02:32:42.211Z,3.20
2017-11-24T02:35:09.699Z,3.80
2017-11-24T02:37:37.096Z,4.07
2017-11-24T02:40:04.516Z,3.90
2017-11-24T02:42:32.009Z,3.57
2017-11-24T02:44:59.416Z,3.50
2017-11-24T02:47:26.826Z,3.50
2017-11-24T02:49:54.240Z,3.60
2017-11-24T02:52:21.653Z,3.33
2017-11-24T02:54:49.063Z,3.47
2017-11-24T02:57:16.478Z,3.63
2017-11-24T02:59:44.663Z,3.53
2017-11-24T03:02:12.858Z,3.70
2017-11-24T03:04:40.322Z,3.60
2017-11-24T03:07:07.811Z,3.07
2017-11-24T03:09:35.288Z,3.40
2017-11-24T03:12:02.757Z,3.57
2017-11-24T03:14:30.174Z,3.00
2017-11-24T03:16:59.088Z,3.50
2017-11-24T03:19:27.272Z,3.23
2017-11-24T03:21:55.479Z,3.80
2017-11-24T03:24:22.887Z,3.00
2017-11-24T03:26:50.294Z,3.43
2017-11-24T03:29:18.507Z,2.90
2017-11-24T03:31:45.976Z,3.00
2017-11-24T03:34:13.384Z,3.30
2017-11-24T03:36:40.788Z,3.37
2017-11-24T03:39:08.962Z,2.73
2017-11-24T03:41:36.473Z,2.67
2017-11-24T03:44:04.626Z,3.03
2017-11-24T03:46:32.805Z,3.30
2017-11-24T03:49:00.213Z,2.83
2017-11-24T03:51:27.614Z,3.53
2017-11-24T03:53:55.022Z,2.47
2017-11-24T03:56:23.195Z,3.13
2017-11-24T03:58:51.367Z,3.20
2017-11-24T04:01:18.781Z,2.97
2017-11-24T04:03:46.183Z,3.40
2017-11-24T04:06:13.604Z,3.90
2017-11-24T04:08:41.003Z,2.87
2017-11-24T04:11:08.433Z,3.90
2017-11-24T04:13:36.601Z,3.70
2017-11-24T04:16:04.007Z,3.30
2017-11-24T04:18:31.467Z,3.97
2017-11-24T04:20:58.884Z,3.33
2017-11-24T04:23:26.301Z,3.70
2017-11-24T04:25:53.708Z,3.30
2017-11-24T04:28:21.142Z,4.30
2017-11-24T04:30:48.561Z,3.80
2017-11-24T04:33:15.971Z,3.67
2017-11-24T04:35:43.446Z,3.87
2017-11-24T04:38:10.907Z,4.20
2017-11-24T04:40:38.367Z,3.50
2017-11-24T04:43:05.855Z,4.07
2017-11-24T04:45:33.331Z,4.00
2017-11-24T04:48:00.751Z,4.00
2017-11-24T04:50:28.267Z,3.83
2017-11-24T04:52:55.679Z,3.50
2017-11-24T04:55:23.078Z,4.33
2017-11-24T04:57:51.288Z,3.90
2017-11-24T05:00:18.691Z,5.03
2017-11-24T05:02:46.125Z,4.60
2017-11-24T05:05:14.303Z,4.10
2017-11-24T05:07:41.716Z,4.07
2017-11-24T05:10:09.163Z,4.00
2017-11-24T05:12:36.614Z,4.10
2017-11-24T05:15:04.787Z,3.87
2017-11-24T05:17:32.195Z,3.77
2017-11-24T05:19:59.619Z,3.10
2017-11-24T05:22:27.107Z,3.57
2017-11-24T05:24:54.569Z,3.10
2017-11-24T05:27:21.985Z,3.60
2017-11-24T05:29:49.399Z,2.80
2017-11-24T05:32:17.001Z,3.03
2017-11-24T05:34:44.415Z,2.63
2017-11-24T05:37:12.635Z,3.50
2017-11-24T05:39:40.104Z,2.63
2017-11-24T05:42:07.520Z,2.57
2017-11-24T05:44:34.929Z,2.83
2017-11-24T05:47:02.344Z,2.80
2017-11-24T05:49:29.749Z,2.43
2017-11-24T05:51:57.976Z,2.70
2017-11-24T05:54:25.384Z,2.70
2017-11-24T05:56:52.883Z,3.23
2017-11-24T05:59:20.345Z,2.47
2017-11-24T06:01:48.514Z,2.60
2017-11-24T06:04:16.710Z,3.03
2017-11-24T06:06:44.883Z,2.70
2017-11-24T06:09:13.063Z,3.00
2017-11-24T06:11:40.553Z,3.43
2017-11-24T06:14:08.728Z,2.93
2017-11-24T06:16:36.949Z,3.60
2017-11-24T06:19:04.411Z,3.33
2017-11-24T06:21:32.604Z,3.33
2017-11-24T06:24:00.035Z,3.87
2017-11-24T06:26:27.448Z,3.70
2017-11-24T06:28:54.891Z,4.00
2017-11-24T06:31:22.332Z,3.20
2017-11-24T06:33:49.746Z,3.20
2017-11-24T06:36:17.168Z,2.83
2017-11-24T06:38:44.579Z,2.90
2017-11-24T06:41:11.994Z,3.47
2017-11-24T06:43:39.408Z,3.20
2017-11-24T06:46:06.887Z,3.53
2017-11-24T06:48:34.356Z,3.00
2017-11-24T06:51:01.764Z,4.10
2017-11-24T06:53:29.182Z,3.30
2017-11-24T06:55:56.657Z,3.83
2017-11-24T06:58:24.058Z,4.40
2017-11-24T07:00:51.478Z,4.03
2017-11-24T07:03:18.889Z,3.80
2017-11-24T07:05:46.292Z,3.67
2017-11-24T07:08:14.485Z,3.83
2017-11-24T07:10:42.703Z,4.00
2017-11-24T07:13:10.856Z,3.93
2017-11-24T07:15:39.063Z,4.07
2017-11-24T07:18:06.478Z,3.13
2017-11-24T07:20:33.922Z,3.50
2017-11-24T07:23:01.485Z,3.80
2017-11-24T07:25:28.878Z,3.67
2017-11-24T07:27:56.296Z,3.30
2017-11-24T07:30:23.795Z,4.10
2017-11-24T07:32:51.211Z,4.40
2017-11-24T07:35:18.721Z,4.00
2017-11-24T07:37:46.124Z,5.43
2017-11-24T07:40:13.531Z,4.63
2017-11-24T07:42:41.703Z,5.00
2017-11-24T07:45:09.216Z,5.27
2017-11-24T07:47:37.419Z,5.27
2017-11-24T07:50:04.846Z,5.57
2017-11-24T07:52:33.055Z,6.10
2017-11-24T07:55:01.256Z,4.50
2017-11-24T07:57:28.658Z,4.90
2017-11-24T07:59:56.287Z,3.83
2017-11-24T08:02:23.688Z,4.13
2017-11-24T08:04:51.092Z,4.27
2017-11-24T08:07:19.293Z,4.10
2017-11-24T08:09:46.699Z,4.30
2017-11-24T08:12:14.128Z,3.60
2017-11-24T08:14:41.603Z,4.10
2017-11-24T08:17:09.028Z,3.83
2017-11-24T08:19:36.458Z,3.70
2017-11-24T08:22:03.859Z,2.87
2017-11-24T08:24:31.291Z,2.90
2017-11-24T08:26:58.753Z,3.43
2017-11-24T08:29:26.160Z,3.50
2017-11-24T08:31:53.576Z,3.50
2017-11-24T08:34:21.012Z,3.53
2017-11-24T08:36:48.421Z,3.80
2017-11-24T08:39:15.829Z,4.80
2017-11-24T08:41:43.240Z,3.60
2017-11-24T08:44:10.635Z,2.77
2017-11-24T08:46:43.811Z,3.70
2017-11-24T08:49:17.770Z,3.80
2017-11-24T08:51:45.192Z,2.90
2017-11-24T08:54:13.364Z,3.80
2017-11-24T08:56:40.781Z,4.33
2017-11-24T08:59:08.243Z,4.30
2017-11-24T09:01:36.411Z,3.73
2017-11-24T09:04:04.587Z,4.53
2017-11-24T09:06:32.777Z,4.00
2017-11-24T09:09:00.960Z,6.53
2017-11-24T09:11:28.396Z,5.13
2017-11-24T09:13:55.783Z,5.60
2017-11-24T09:16:23.968Z,3.97
2017-11-24T09:18:52.139Z,4.40
2017-11-24T09:21:19.547Z,4.10
2017-11-24T09:23:46.960Z,4.40
2017-11-24T09:26:14.399Z,4.13
2017-11-24T09:28:42.695Z,3.93
2017-11-24T09:31:10.154Z,4.97
2017-11-24T09:33:37.544Z,4.17
2017-11-24T09:36:04.976Z,4.20
2017-11-24T09:38:32.452Z,3.70
2017-11-24T09:40:59.915Z,4.17
2017-11-24T09:43:27.324Z,4.10
2017-11-24T09:45:54.724Z,4.80
2017-11-24T09:48:22.131Z,4.03
2017-11-24T09:50:49.531Z,4.53
2017-11-24T09:53:16.964Z,4.40
2017-11-24T09:55:44.389Z,3.97
2017-11-24T09:58:13.306Z,5.50
2017-11-24T10:00:41.508Z,5.30
2017-11-24T10:03:09.019Z,4.70
2017-11-24T10:05:36.457Z,4.80
2017-11-24T10:08:04.611Z,4.57
2017-11-24T10:10:32.829Z,4.50
2017-11-24T10:13:00.227Z,5.10
2017-11-24T10:15:27.654Z,4.37
2017-11-24T10:17:55.083Z,5.10
2017-11-24T10:20:22.475Z,4.87
2017-11-24T10:22:50.692Z,4.30
2017-11-24T10:25:18.179Z,4.60
2017-11-24T10:27:45.629Z,4.63
2017-11-24T10:30:13.019Z,4.60
2017-11-24T10:32:40.458Z,4.33
2017-11-24T10:35:07.881Z,3.07
2017-11-24T10:37:35.395Z,3.40
2017-11-24T10:40:02.838Z,3.00
2017-11-24T10:42:30.327Z,2.40
2017-11-24T10:44:57.791Z,2.60
2017-11-24T10:47:25.284Z,2.57
2017-11-24T10:49:52.674Z,2.47
2017-11-24T10:52:20.091Z,2.40
2017-11-24T10:54:48.283Z,3.00
2017-11-24T10:57:15.764Z,3.13
2017-11-24T10:59:43.167Z,3.40
2017-11-24T11:02:10.591Z,3.00
2017-11-24T11:04:38.004Z,3.80
2017-11-24T11:07:05.431Z,3.63
2017-11-24T11:09:32.847Z,3.63
2017-11-24T11:12:00.287Z,3.97
2017-11-24T11:14:27.676Z,3.30
2017-11-24T11:16:55.087Z,4.07
2017-11-24T11:19:22.585Z,4.00
2017-11-24T11:21:49.971Z,3.73
2017-11-24T11:24:17.405Z,4.30
2017-11-24T11:26:44.805Z,4.10
2017-11-24T11:29:12.228Z,4.40
2017-11-24T11:31:39.705Z,2.57
2017-11-24T11:34:07.128Z,2.10
2017-11-24T11:36:34.535Z,1.70
2017-11-24T11:39:02.013Z,1.90
2017-11-24T11:41:29.415Z,1.70
2017-11-24T11:43:56.836Z,1.83
2017-11-24T11:46:25.008Z,1.80
2017-11-24T11:48:53.199Z,1.80
2017-11-24T11:51:21.364Z,1.90
2017-11-24T11:53:48.769Z,1.80
2017-11-24T11:56:16.175Z,2.23
2017-11-24T11:58:43.611Z,2.90
2017-11-24T12:01:11.017Z,3.40
2017-11-24T12:03:38.429Z,3.50
2017-11-24T12:06:06.595Z,3.50
2017-11-24T12:08:34.108Z,4.13
2017-11-24T12:11:01.596Z,4.60
2017-11-24T12:13:29.035Z,4.37
2017-11-24T12:15:56.449Z,4.50
2017-11-24T12:18:23.877Z,3.90
2017-11-24T12:20:52.027Z,3.97
2017-11-24T12:23:19.427Z,3.30
2017-11-24T12:25:46.831Z,3.40
2017-11-24T12:28:14.264Z,2.70
2017-11-24T12:30:42.454Z,2.10
2017-11-24T12:33:10.622Z,2.03
2017-11-24T12:35:38.816Z,2.33
2017-11-24T12:38:06.295Z,3.20
2017-11-24T12:40:33.743Z,2.50
2017-11-24T12:43:01.945Z,2.70
2017-11-24T12:45:29.354Z,2.40
2017-11-24T12:47:56.783Z,2.17
2017-11-24T12:50:24.240Z,2.40
2017-11-24T12:52:51.656Z,2.60
2017-11-24T12:55:19.065Z,2.40
2017-11-24T12:57:47.273Z,2.30
2017-11-24T13:00:15.429Z,2.30
2017-11-24T13:02:43.616Z,2.30
2017-11-24T13:05:11.831Z,2.10
2017-11-24T13:07:39.991Z,2.23
2017-11-24T13:10:08.151Z,2.73
2017-11-24T13:12:35.687Z,3.47
2017-11-24T13:15:03.317Z,3.30
2017-11-24T13:17:31.546Z,3.73
2017-11-24T13:19:58.951Z,3.80
2017-11-24T13:22:27.867Z,4.70
2017-11-24T13:24:56.050Z,4.07
2017-11-24T13:27:23.458Z,4.37
2017-11-24T13:29:51.026Z,4.23
2017-11-24T13:32:19.204Z,3.87
2017-11-24T13:34:46.628Z,4.20
2017-11-24T13:37:14.031Z,3.90
2017-11-24T13:39:41.626Z,4.00
2017-11-24T13:42:09.785Z,3.53
2017-11-24T13:44:37.961Z,4.00
2017-11-24T13:47:06.141Z,3.83
2017-11-24T13:49:34.353Z,4.20
2017-11-24T13:52:01.776Z,3.63
2017-11-24T13:54:30.016Z,3.83
2017-11-24T13:56:57.489Z,4.17
2017-11-24T13:59:24.919Z,4.10
2017-11-24T14:01:53.235Z,4.00
2017-11-24T14:04:20.646Z,3.70
2017-11-24T14:06:48.088Z,4.63
2017-11-24T14:09:15.498Z,4.17
2017-11-24T14:11:43.025Z,4.13
2017-11-24T14:14:10.416Z,4.80
2017-11-24T14:16:37.824Z,4.20
2017-11-24T14:19:06.042Z,4.30
2017-11-24T14:21:33.443Z,4.70
2017-11-24T14:24:00.890Z,4.13
2017-11-24T14:26:28.342Z,4.47
2017-11-24T14:28:56.487Z,4.13
2017-11-24T14:31:23.893Z,4.63
2017-11-24T14:33:51.304Z,4.40
2017-11-24T14:36:18.719Z,4.40
2017-11-24T14:38:46.201Z,4.63
2017-11-24T14:41:13.612Z,4.43
2017-11-24T14:43:41.128Z,4.33
2017-11-24T14:46:08.540Z,4.70
2017-11-24T14:48:35.981Z,4.60
2017-11-24T14:51:03.389Z,4.30
2017-11-24T14:53:30.794Z,4.90
2017-11-24T14:55:58.277Z,4.60
2017-11-24T14:58:25.687Z,4.67
2017-11-24T15:00:53.099Z,4.57
2017-11-24T15:03:20.601Z,4.90
2017-11-24T15:05:47.987Z,5.77
2017-11-24T15:08:15.416Z,4.90
2017-11-24T15:10:42.828Z,5.00
2017-11-24T15:13:10.233Z,5.17
2017-11-24T15:15:38.420Z,5.60
2017-11-24T15:18:05.824Z,5.70
2017-11-24T15:20:33.392Z,5.90
2017-11-24T15:23:00.789Z,5.70
2017-11-24T15:25:28.195Z,6.03
2017-11-24T15:27:55.620Z,6.40
2017-11-24T15:30:23.153Z,6.67
2017-11-24T15:32:51.294Z,6.93
2017-11-24T15:35:19.015Z,7.20
2017-11-24T15:37:47.291Z,7.80
2017-11-24T15:40:14.696Z,8.30
2017-11-24T15:42:42.100Z,6.93
2017-11-24T15:45:10.336Z,8.07
2017-11-24T15:47:37.731Z,7.00
2017-11-24T15:50:05.177Z,7.10
2017-11-24T15:52:32.593Z,7.80
2017-11-24T15:55:00.025Z,7.97
2017-11-24T15:57:27.644Z,8.00
2017-11-24T15:59:55.953Z,7.63
2017-11-24T16:02:23.355Z,7.93
2017-11-24T16:04:50.781Z,8.30
2017-11-24T16:07:18.959Z,7.30
2017-11-24T16:09:46.376Z,6.90
2017-11-24T16:12:13.783Z,8.20
2017-11-24T16:14:41.958Z,7.00
2017-11-24T16:17:09.359Z,7.63
2017-11-24T16:19:36.784Z,7.50
2017-11-24T16:22:04.303Z,6.97
2017-11-24T16:24:31.831Z,7.73
2017-11-24T16:26:59.346Z,7.37
2017-11-24T16:29:26.761Z,7.30
2017-11-24T16:31:54.175Z,7.60
2017-11-24T16:34:21.641Z,7.90
2017-11-24T16:36:49.057Z,6.90
2017-11-24T16:39:16.588Z,7.30
2017-11-24T16:41:44.739Z,7.30
2017-11-24T16:44:12.912Z,7.57
2017-11-24T16:46:40.430Z,7.40
2017-11-24T16:49:07.823Z,7.30
2017-11-24T16:51:35.237Z,8.00
2017-11-24T16:54:03.508Z,7.57
2017-11-24T16:56:30.919Z,7.60
2017-11-24T16:58:58.376Z,8.00
2017-11-24T17:01:25.857Z,8.10
2017-11-24T17:03:53.323Z,9.00
2017-11-24T17:06:20.740Z,9.33
2017-11-24T17:08:48.180Z,9.60
2017-11-24T17:11:15.583Z,9.80
2017-11-24T17:13:43.092Z,9.50
2017-11-24T17:16:10.511Z,10.83
2017-11-24T17:18:39.463Z,10.43
2017-11-24T17:21:06.895Z,10.60
2017-11-24T17:23:34.408Z,10.63
2017-11-24T17:26:01.893Z,12.63
2017-11-24T17:28:29.303Z,11.23
2017-11-24T17:30:57.488Z,12.30
2017-11-24T17:33:24.896Z,10.93
2017-11-24T17:35:52.356Z,11.70
2017-11-24T17:38:19.767Z,11.73
2017-11-24T17:40:47.181Z,11.73
2017-11-24T17:43:15.354Z,13.13
2017-11-24T17:45:42.859Z,12.10
2017-11-24T17:48:10.256Z,13.30
2017-11-24T17:50:37.667Z,12.40
2017-11-24T17:53:05.870Z,12.60
2017-11-24T17:55:33.283Z,13.47
2017-11-24T17:58:00.703Z,13.83
2017-11-24T18:00:28.124Z,13.50
2017-11-24T18:02:55.652Z,13.50
2017-11-24T18:05:23.816Z,14.50
2017-11-24T18:07:52.025Z,14.33
2017-11-24T18:10:19.430Z,14.20
2017-11-24T18:12:46.982Z,16.00
2017-11-24T18:15:14.388Z,15.07
2017-11-24T18:17:43.336Z,15.80
2017-11-24T18:20:11.517Z,16.03
2017-11-24T18:22:38.981Z,16.60
2017-11-24T18:25:06.447Z,17.90
2017-11-24T18:27:33.900Z,16.77
2017-11-24T18:30:01.402Z,17.57
2017-11-24T18:32:28.855Z,17.90
2017-11-24T18:34:56.264Z,19.40
2017-11-24T18:37:23.693Z,18.30
2017-11-24T18:39:51.171Z,18.30
2017-11-24T18:42:18.638Z,19.17
2017-11-24T18:44:46.792Z,18.93
2017-11-24T18:47:14.969Z,19.93
2017-11-24T18:49:42.385Z,20.07
2017-11-24T18:52:09.798Z,22.43
2017-11-24T18:54:37.418Z,21.83
2017-11-24T18:57:05.604Z,21.80
2017-11-24T18:59:33.079Z,23.37
2017-11-24T19:02:00.496Z,22.80
2017-11-24T19:04:28.000Z,22.40
2017-11-24T19:06:55.420Z,23.10
2017-11-24T19:09:22.840Z,22.60
2017-11-24T19:11:50.336Z,21.70
2017-11-24T19:14:17.730Z,22.93
2017-11-24T19:16:45.149Z,22.60
2017-11-24T19:19:12.553Z,22.83
2017-11-24T19:21:39.983Z,23.00
2017-11-24T19:24:07.428Z,24.77
2017-11-24T19:26:35.601Z,24.67
2017-11-24T19:29:03.019Z,24.17
2017-11-24T19:31:30.470Z,25.07
2017-11-24T19:33:57.880Z,23.77
2017-11-24T19:36:25.297Z,25.00
2017-11-24T19:38:53.475Z,25.63
2017-11-24T19:41:21.658Z,24.40
2017-11-24T19:43:49.832Z,25.90
2017-11-24T19:46:17.241Z,25.17
2017-11-24T19:48:44.713Z,24.53
2017-11-24T19:51:12.111Z,25.57
2017-11-24T19:53:39.531Z,24.27
2017-11-24T19:56:06.952Z,26.20
2017-11-24T19:58:34.485Z,24.77
2017-11-24T20:01:02.639Z,25.30
2017-11-24T20:03:30.824Z,24.30
2017-11-24T20:05:59.019Z,27.63
2017-11-24T20:08:26.455Z,25.83
2017-11-24T20:10:53.872Z,26.40
2017-11-24T20:13:21.332Z,26.90
2017-11-24T20:15:48.755Z,26.87
2017-11-24T20:18:16.176Z,27.57
2017-11-24T20:20:43.579Z,26.40
2017-11-24T20:23:10.987Z,25.77
2017-11-24T20:25:39.167Z,25.83
2017-11-24T20:28:07.386Z,24.77
2017-11-24T20:30:35.018Z,25.60
2017-11-24T20:33:02.423Z,26.00
2017-11-24T20:35:29.844Z,27.40
2017-11-24T20:37:57.354Z,26.67
2017-11-24T20:40:24.773Z,27.00
2017-11-24T20:42:52.298Z,26.40
2017-11-24T20:45:19.691Z,26.50
2017-11-24T20:47:47.116Z,28.67
2017-11-24T20:50:15.286Z,28.33
2017-11-24T20:52:43.458Z,27.77
2017-11-24T20:55:10.967Z,25.73
2017-11-24T20:57:38.444Z,25.50
2017-11-24T21:00:05.856Z,25.37
2017-11-24T21:02:33.325Z,24.70
2017-11-24T21:05:00.740Z,26.93
2017-11-24T21:07:28.235Z,25.20
2017-11-24T21:09:55.651Z,27.30
2017-11-24T21:12:23.822Z,27.40
2017-11-24T21:14:51.232Z,26.90
2017-11-24T21:17:18.655Z,26.37
2017-11-24T21:19:46.076Z,25.27
2017-11-24T21:22:13.546Z,25.20
2017-11-24T21:24:41.019Z,26.87
2017-11-24T21:27:08.418Z,27.77
2017-11-24T21:29:35.857Z,27.47
2017-11-24T21:32:03.315Z,26.80
2017-11-24T21:34:30.728Z,25.27
2017-11-24T21:36:58.131Z,26.97
2017-11-24T21:39:26.314Z,27.30
2017-11-24T21:41:54.520Z,27.13
2017-11-24T21:44:21.999Z,29.80
2017-11-24T21:46:49.566Z,30.13
2017-11-24T21:49:17.024Z,30.63
2017-11-24T21:51:44.434Z,29.47
2017-11-24T21:54:11.869Z,29.57
2017-11-24T21:56:39.337Z,29.47
2017-11-24T21:59:06.804Z,30.70
2017-11-24T22:01:34.225Z,29.50
2017-11-24T22:04:01.751Z,28.40
2017-11-24T22:06:29.175Z,30.40
2017-11-24T22:08:57.362Z,28.13
2017-11-24T22:11:24.768Z,28.77
2017-11-24T22:13:52.184Z,30.20
2017-11-24T22:16:19.710Z,29.40
2017-11-24T22:18:47.116Z,29.40
2017-11-24T22:21:14.543Z,31.23
2017-11-24T22:23:41.951Z,30.27
2017-11-24T22:26:09.387Z,31.03
2017-11-24T22:28:36.790Z,30.87
2017-11-24T22:31:04.243Z,29.43
2017-11-24T22:33:31.646Z,30.60
2017-11-24T22:35:59.139Z,27.73
2017-11-24T22:38:26.552Z,28.63
2017-11-24T22:40:53.962Z,29.40
2017-11-24T22:43:22.277Z,29.67
2017-11-24T22:45:50.431Z,28.83
2017-11-24T22:48:18.643Z,30.73
2017-11-24T22:50:46.052Z,28.87
2017-11-24T22:53:13.486Z,28.00
2017-11-24T22:55:40.879Z,28.30
2017-11-24T22:58:08.297Z,28.10
2017-11-24T23:00:36.471Z,29.50
2017-11-24T23:03:04.697Z,30.00
2017-11-24T23:05:32.155Z,29.10
2017-11-24T23:07:59.564Z,26.97
2017-11-24T23:10:26.971Z,28.83
2017-11-24T23:12:54.393Z,29.93
2017-11-24T23:15:21.795Z,28.70
2017-11-24T23:17:49.967Z,27.30
2017-11-24T23:20:17.394Z,25.37
2017-11-24T23:22:44.847Z,26.10
2017-11-24T23:25:12.324Z,26.90
2017-11-24T23:27:39.742Z,26.13
2017-11-24T23:30:07.258Z,27.90
2017-11-24T23:32:35.435Z,25.97
2017-11-24T23:35:02.870Z,27.43
2017-11-24T23:37:31.783Z,26.93
2017-11-24T23:40:00.009Z,26.80
2017-11-24T23:42:27.414Z,29.40
2017-11-24T23:44:55.047Z,28.10
2017-11-24T23:47:22.431Z,26.60
2017-11-24T23:49:49.859Z,26.80
2017-11-24T23:52:18.044Z,26.40
2017-11-24T23:54:46.242Z,26.57
2017-11-24T23:57:13.680Z,26.00
2017-11-24T23:59:41.863Z,24.70
